KORD/ORD METAR and TAF weather

Enter ICAO airport designator
Station Type Date Time Source
KORD METAR 2019/06/27 09:51 UTC NOAA

KORD 270951Z 21004KT 10SM FEW040 BKN250 21/18 A3012 RMK AO2 SLP193 T02060178


Station Type Date Time Source
KORD Decoded METAR 2019/06/27 09:51 UTC NOAA

CHICAGO O'HARE INTERNATIONAL, IL, United States (KORD) 41-59N 087-55W 200M
Jun 27, 2019 - 05:51 AM EDT / 2019.06.27 0951 UTC
Wind: from the SSW (210 degrees) at 5 MPH (4 KT):0
Visibility: 10 mile(s):0
Sky conditions: mostly cloudy
Temperature: 69.1 F (20.6 C)
Dew Point: 64.0 F (17.8 C)
Relative Humidity: 83%
Pressure (altimeter): 30.12 in. Hg (1019 hPa)
ob: KORD 270951Z 21004KT 10SM FEW040 BKN250 21/18 A3012 RMK AO2 SLP193 T02060178
cycle: 10

Station Type Date Time Source
KORD TAF 2019/06/27 09:03 UTC NOAA

TAF
AMD KORD 270901Z 2709/2812 19008KT P6SM FEW050 BKN250
FM271400 17008KT P6SM SCT050 BKN250
FM272100 19009KT P6SM SCT050 BKN250 PROB30 2721/2801 3SM TSRA BKN040CB
FM280200 18006KT P6SM SCT070 BKN250

Example: see airport list